Terminal Aerodrome Forecast
Issued by NWS

Home | Current Version | Previous Version | Text Only | Print | Product List | Glossary On
Versions: 1 2 3 4 5 6 7 8 9 10 11 12 13 14 15 16 17 18 19 20 21 22 23
000
FTUS41 KALY 250520
TAFPSF
TAF
KPSF 250520Z 2506/2606 VRB03KT P6SM BKN090
     FM250900 10009KT 3SM -PL BR OVC060
     FM251200 11013G23KT 2SM -FZRAPL BR BKN008 OVC015
     FM251500 12015G25KT 2SM -RA BR OVC005
     FM251900 12009KT 4SM BR VCSH OVC007
     FM260300 27004KT 2SM BR OVC005=

USA.gov is the U.S. government's official web portal to all federal, state and local government web resources and services.